Time;durP1;ratioP1;P1;durP2;ratioP2;P2;SDS_P1;SDS_P2;PMS_P1;PMS_P2;Temp;Humidity;BMP_temperature;BMP_pressure;BME280_temperature;BME280_humidity;BME280_pressure;Samples;Min_cycle;Max_cycle;Signal;HPM_P1;HPM_P2
2021/07/08 00:02:26;;;;;;;0.00;0.00;;;;;;;19.87;60.78;101964.75;5012911;28;20030;-82
2021/07/08 00:04:52;;;;;;;0.10;0.10;;;;;;;19.89;60.55;101973.66;5012659;28;20473;-82
2021/07/08 00:07:18;;;;;;;0.38;0.38;;;;;;;19.88;60.47;101974.59;5013170;28;20041;-82
2021/07/08 00:09:46;;;;;;;0.20;0.20;;;;;;;19.92;60.40;101972.66;5013145;28;20033;-82
2021/07/08 00:12:13;;;;;;;0.00;0.00;;;;;;;19.91;60.64;101961.00;5012626;28;20084;-82
2021/07/08 00:14:39;;;;;;;0.22;0.22;;;;;;;19.87;61.00;101964.75;5012614;28;20025;-82
2021/07/08 00:17:07;;;;;;;1.17;1.17;;;;;;;19.83;60.48;101960.47;5012929;28;20025;-82
2021/07/08 00:19:33;;;;;;;0.10;0.10;;;;;;;19.83;60.41;101963.16;5012903;28;20033;-82
2021/07/08 00:22:00;;;;;;;0.00;0.00;;;;;;;19.81;60.64;101964.97;5012980;28;20030;-83
2021/07/08 00:24:27;;;;;;;0.08;0.08;;;;;;;19.83;60.18;101966.69;5013078;28;20029;-81
2021/07/08 00:26:53;;;;;;;0.30;0.30;;;;;;;19.82;60.57;101966.75;5012615;28;20041;-82
2021/07/08 00:29:20;;;;;;;0.10;0.10;;;;;;;19.84;60.63;101973.84;5012910;28;20464;-82
2021/07/08 00:31:46;;;;;;;0.10;0.10;;;;;;;19.85;60.38;101970.22;4995574;28;20485;-81
2021/07/08 00:34:13;;;;;;;0.57;0.57;;;;;;;19.86;60.26;101968.38;5012785;28;20030;-82
2021/07/08 00:36:39;;;;;;;0.00;0.00;;;;;;;19.84;60.12;101970.28;5013105;28;20030;-81
2021/07/08 00:39:06;;;;;;;0.00;0.00;;;;;;;19.78;59.95;101965.13;5012833;28;20045;-82
2021/07/08 00:41:32;;;;;;;0.15;0.15;;;;;;;19.72;60.01;101972.47;5011853;28;20432;-83
2021/07/08 00:43:59;;;;;;;0.00;0.00;;;;;;;19.67;60.04;101979.00;5012590;28;20068;-80
2021/07/08 00:46:25;;;;;;;0.08;0.08;;;;;;;19.60;60.08;101978.38;5012561;28;20030;-82
2021/07/08 00:48:51;;;;;;;0.20;0.20;;;;;;;19.56;60.10;101982.09;5014657;28;20472;-82
2021/07/08 00:51:18;;;;;;;0.10;0.10;;;;;;;19.54;59.84;101984.00;5016486;28;20057;-82
2021/07/08 00:53:44;;;;;;;0.10;0.10;;;;;;;19.51;60.22;101984.09;5014681;28;20033;-82
2021/07/08 00:56:12;;;;;;;0.00;0.00;;;;;;;19.46;60.41;101981.59;5013031;28;20497;-82
2021/07/08 00:58:39;;;;;;;0.28;0.28;;;;;;;19.42;60.28;101984.47;5016246;28;20483;-83
2021/07/08 01:01:06;;;;;;;0.03;0.03;;;;;;;19.39;60.12;101990.84;4998601;28;20050;-82
2021/07/08 01:03:33;;;;;;;0.08;0.08;;;;;;;19.31;60.17;101987.56;5015495;28;20034;-82
2021/07/08 01:06:00;;;;;;;0.00;0.00;;;;;;;19.28;60.17;101988.56;5015793;28;20045;-81
2021/07/08 01:08:27;;;;;;;0.10;0.10;;;;;;;19.24;60.18;101992.31;5016146;28;20535;-82
2021/07/08 01:10:54;;;;;;;0.10;0.10;;;;;;;19.20;59.94;101985.28;5015120;28;20393;-82
2021/07/08 01:13:21;;;;;;;0.17;0.17;;;;;;;19.15;60.18;101981.91;5014816;28;20022;-82
2021/07/08 01:15:47;;;;;;;0.00;0.00;;;;;;;19.11;60.53;101991.03;4997820;28;20044;-81
2021/07/08 01:18:14;;;;;;;0.10;0.10;;;;;;;19.09;60.75;101991.09;5015512;28;20025;-81
2021/07/08 01:20:41;;;;;;;0.00;0.00;;;;;;;19.07;60.33;101987.56;5015342;28;20129;-82
2021/07/08 01:23:07;;;;;;;0.43;0.40;;;;;;;19.04;60.59;101984.97;5015407;28;20026;-81
2021/07/08 01:25:38;;;;;;;0.10;0.10;;;;;;;19.04;60.87;101991.25;5015470;28;20022;-81
2021/07/08 01:28:07;;;;;;;0.10;0.10;;;;;;;19.02;60.93;101982.38;5015698;28;20030;-82
2021/07/08 01:30:35;;;;;;;0.98;0.80;;;;;;;19.06;60.90;101983.13;5015689;28;20311;-81
2021/07/08 01:33:03;;;;;;;0.03;0.03;;;;;;;19.06;61.24;101986.69;5015185;28;20038;-82
2021/07/08 01:35:30;;;;;;;0.00;0.00;;;;;;;19.12;61.26;101992.78;5015605;28;20057;-82
2021/07/08 01:37:56;;;;;;;0.00;0.00;;;;;;;19.17;61.20;101996.16;5015467;28;20030;-82
2021/07/08 01:40:23;;;;;;;0.20;0.20;;;;;;;19.22;61.22;101994.19;5014725;28;20048;-82
2021/07/08 01:42:50;;;;;;;0.00;0.00;;;;;;;19.26;61.56;101997.63;5015007;28;20039;-82
2021/07/08 01:45:18;;;;;;;0.00;0.00;;;;;;;19.27;60.92;101997.56;5015315;28;20037;-82
2021/07/08 01:47:50;;;;;;;0.00;0.00;;;;;;;19.30;60.49;101997.47;5009968;28;20029;-82
2021/07/08 01:50:24;;;;;;;0.10;0.10;;;;;;;19.39;60.41;102002.47;5014905;28;20473;-81
2021/07/08 01:53:06;;;;;;;0.10;0.10;;;;;;;19.45;60.17;102003.16;5014894;28;20038;-81
2021/07/08 01:55:33;;;;;;;0.20;0.20;;;;;;;19.48;60.62;102001.22;5013087;28;20121;-82
2021/07/08 01:58:01;;;;;;;0.00;0.00;;;;;;;19.52;61.15;102010.03;5014759;28;20069;-81
2021/07/08 02:00:28;;;;;;;0.00;0.00;;;;;;;19.58;61.13;102012.50;5014815;28;20026;-81
2021/07/08 02:02:57;;;;;;;0.08;0.08;;;;;;;19.62;61.32;102003.38;4996915;28;20033;-81
2021/07/08 02:05:24;;;;;;;0.00;0.00;;;;;;;19.64;61.83;102004.19;5014686;28;20022;-81
2021/07/08 02:07:51;;;;;;;0.00;0.00;;;;;;;19.68;61.75;101996.88;5014451;28;20168;-82
2021/07/08 02:10:18;;;;;;;0.10;0.10;;;;;;;19.72;61.56;101993.13;5014807;28;20392;-82
2021/07/08 02:12:45;;;;;;;0.10;0.10;;;;;;;19.78;61.58;101994.69;5014503;28;20096;-81
2021/07/08 02:15:14;;;;;;;0.00;0.00;;;;;;;19.81;61.59;101999.94;5014136;28;20087;-82
2021/07/08 02:17:41;;;;;;;0.00;0.00;;;;;;;19.88;60.64;101998.78;5014581;28;20477;-82
2021/07/08 02:20:11;;;;;;;0.00;0.00;;;;;;;19.91;61.52;101995.09;5014545;28;20424;-82
2021/07/08 02:22:41;;;;;;;0.00;0.00;;;;;;;19.96;60.98;101988.59;5011723;28;20030;-82
2021/07/08 02:25:10;;;;;;;0.00;0.00;;;;;;;19.98;61.02;101980.47;5012746;28;20491;-82
2021/07/08 02:27:37;;;;;;;0.10;0.10;;;;;;;20.03;60.80;101982.00;5014637;28;20076;-82
2021/07/08 02:30:12;;;;;;;0.00;0.00;;;;;;;20.10;60.61;101982.66;5014347;28;20045;-83
2021/07/08 02:32:40;;;;;;;0.00;0.00;;;;;;;20.08;60.64;101978.28;5014583;28;20420;-82
2021/07/08 02:35:08;;;;;;;0.20;0.20;;;;;;;20.09;60.23;101980.00;5014189;28;20421;-83
2021/07/08 02:37:37;;;;;;;0.00;0.00;;;;;;;20.03;60.37;101976.63;5011152;28;20101;-82
2021/07/08 02:40:06;;;;;;;0.00;0.00;;;;;;;20.00;60.47;101979.47;5014111;28;20087;-83
2021/07/08 02:42:33;;;;;;;0.10;0.10;;;;;;;19.96;60.47;101972.47;4996381;28;20044;-82
2021/07/08 02:44:59;;;;;;;0.10;0.10;;;;;;;19.95;60.22;101973.41;5013496;28;20030;-82
2021/07/08 02:47:25;;;;;;;0.10;0.10;;;;;;;19.94;60.27;101979.72;5013923;28;20049;-82
2021/07/08 02:49:52;;;;;;;0.10;0.10;;;;;;;19.93;60.16;101969.03;5013760;28;20350;-82
2021/07/08 02:52:18;;;;;;;0.10;0.10;;;;;;;19.92;60.47;101969.97;4996168;28;20033;-83
2021/07/08 02:54:44;;;;;;;0.57;0.57;;;;;;;19.92;60.18;101970.81;5013437;28;20034;-82
2021/07/08 02:57:11;;;;;;;0.10;0.10;;;;;;;19.88;60.50;101966.53;5013778;28;20033;-82
2021/07/08 02:59:37;;;;;;;0.10;0.10;;;;;;;19.87;60.52;101972.81;4996273;28;20053;-83
2021/07/08 03:02:03;;;;;;;0.25;0.25;;;;;;;19.82;60.72;101982.88;5013317;28;20034;-82
2021/07/08 03:04:30;;;;;;;0.10;0.10;;;;;;;19.78;60.78;101979.44;5014294;28;20041;-83
2021/07/08 03:06:56;;;;;;;0.10;0.10;;;;;;;19.78;60.60;101978.56;5013622;28;20052;-83
2021/07/08 03:09:22;;;;;;;0.05;0.05;;;;;;;19.76;61.01;101980.44;5014211;28;20363;-81
2021/07/08 03:11:49;;;;;;;0.00;0.00;;;;;;;19.77;60.76;101979.50;5012978;28;20030;-82
2021/07/08 03:14:15;;;;;;;0.05;0.05;;;;;;;19.78;61.33;101975.88;5013682;28;20430;-82
2021/07/08 03:16:42;;;;;;;0.00;0.00;;;;;;;19.79;61.40;101977.59;5013482;28;20412;-83
2021/07/08 03:19:10;;;;;;;0.10;0.10;;;;;;;19.79;61.16;101975.81;5011989;28;20018;-82
2021/07/08 03:21:37;;;;;;;0.43;0.38;;;;;;;19.80;61.12;101976.66;5012047;28;20381;-81
2021/07/08 03:24:06;;;;;;;0.03;0.03;;;;;;;19.81;61.32;101984.69;5013549;28;20033;-82
2021/07/08 03:26:33;;;;;;;0.00;0.00;;;;;;;19.80;61.29;101984.75;5012881;28;20037;-82
2021/07/08 03:29:00;;;;;;;0.00;0.00;;;;;;;19.79;61.63;101988.34;5013171;28;20459;-82
2021/07/08 03:31:27;;;;;;;0.10;0.10;;;;;;;19.78;61.59;101981.25;5013296;28;20026;-82
2021/07/08 03:33:54;;;;;;;0.43;0.43;;;;;;;19.75;61.83;101990.31;5013575;28;20041;-82
2021/07/08 03:36:21;;;;;;;0.10;0.10;;;;;;;19.78;61.88;101989.31;5013744;28;20025;-82
2021/07/08 03:38:47;;;;;;;0.10;0.10;;;;;;;19.78;61.80;101986.63;5013424;28;20061;-82
2021/07/08 03:41:13;;;;;;;0.40;0.40;;;;;;;19.75;61.98;101992.13;5013273;28;20030;-81
2021/07/08 03:43:40;;;;;;;0.10;0.10;;;;;;;19.77;62.16;101987.56;5012364;28;20041;-83
2021/07/08 03:46:07;;;;;;;0.20;0.20;;;;;;;19.76;62.43;101989.38;5012968;28;20033;-82
2021/07/08 03:48:33;;;;;;;0.25;0.25;;;;;;;19.76;62.17;101988.50;5002856;28;20108;-82
2021/07/08 03:50:59;;;;;;;0.10;0.10;;;;;;;19.76;62.28;101993.88;5006002;28;20026;-82
2021/07/08 03:53:26;;;;;;;0.00;0.00;;;;;;;19.77;62.51;102001.00;5013456;28;20034;-82
2021/07/08 03:55:52;;;;;;;0.00;0.00;;;;;;;19.78;62.20;102002.78;5013243;28;20117;-81
2021/07/08 03:58:19;;;;;;;0.10;0.10;;;;;;;19.77;62.35;102009.06;5013381;28;20125;-82
2021/07/08 04:00:45;;;;;;;2.10;0.32;;;;;;;19.78;62.44;102010.84;5012966;28;20096;-82
2021/07/08 04:03:15;;;;;;;0.40;0.40;;;;;;;19.77;62.49;102018.00;5013169;28;20058;-82
2021/07/08 04:05:42;;;;;;;0.00;0.00;;;;;;;19.81;62.42;102013.38;4995769;28;20041;-83
2021/07/08 04:08:09;;;;;;;1.58;0.40;;;;;;;19.85;61.94;102010.56;5013234;28;20042;-82
2021/07/08 04:10:37;;;;;;;0.10;0.10;;;;;;;19.91;61.79;102004.03;4995743;28;20432;-82
2021/07/08 04:13:10;;;;;;;0.10;0.10;;;;;;;19.98;61.76;102005.53;4995702;28;20029;-82
2021/07/08 04:15:37;;;;;;;0.05;0.05;;;;;;;20.03;61.42;102010.75;5007446;28;20061;-81
2021/07/08 04:18:04;;;;;;;0.00;0.00;;;;;;;20.07;61.34;102004.28;5018505;28;20076;-81
2021/07/08 04:20:31;;;;;;;0.00;0.00;;;;;;;20.08;61.76;101999.78;5013126;28;20113;-82
2021/07/08 04:22:59;;;;;;;0.35;0.35;;;;;;;20.13;61.38;102004.03;5014040;28;20042;-82
2021/07/08 04:25:25;;;;;;;0.05;0.05;;;;;;;20.12;61.49;102012.16;5017035;28;20030;-83
2021/07/08 04:27:52;;;;;;;0.10;0.10;;;;;;;20.15;61.29;102009.34;5016478;28;20029;-82
2021/07/08 04:30:22;;;;;;;2.15;1.40;;;;;;;20.16;61.47;102013.78;5016515;28;20120;-84
2021/07/08 04:32:49;;;;;;;0.17;0.17;;;;;;;20.19;61.20;102008.28;5016118;28;20463;-83
2021/07/08 04:35:19;;;;;;;0.20;0.20;;;;;;;20.18;61.03;102011.91;5017122;28;20022;-81
2021/07/08 04:37:46;;;;;;;0.10;0.10;;;;;;;20.19;61.06;102013.66;5017214;28;20542;-81
2021/07/08 04:40:15;;;;;;;0.10;0.10;;;;;;;20.27;60.80;102016.91;4999248;28;20124;-83
2021/07/08 04:42:41;;;;;;;0.85;0.85;;;;;;;20.29;61.05;102015.03;5016420;28;20520;-82
2021/07/08 04:45:10;;;;;;;0.20;0.20;;;;;;;20.29;61.46;102015.03;5016247;28;20072;-82
2021/07/08 04:47:38;;;;;;;0.00;0.00;;;;;;;20.35;60.25;102020.16;5016494;28;20075;-82
2021/07/08 04:50:08;;;;;;;0.10;0.10;;;;;;;20.36;60.39;102019.22;5016561;28;20421;-81
2021/07/08 04:52:36;;;;;;;0.98;0.47;;;;;;;20.34;60.30;102022.91;5015442;28;20412;-82
2021/07/08 04:55:04;;;;;;;0.10;0.10;;;;;;;20.43;60.33;102021.63;5016442;28;20526;-83
2021/07/08 04:57:30;;;;;;;0.00;0.00;;;;;;;20.44;60.24;102020.72;5016346;28;20120;-82
2021/07/08 04:59:56;;;;;;;0.00;0.00;;;;;;;20.45;60.53;102030.50;5015966;28;20022;-82
2021/07/08 05:02:23;;;;;;;0.17;0.17;;;;;;;20.48;60.41;102025.00;5016415;28;20104;-82
2021/07/08 05:04:49;;;;;;;0.30;0.30;;;;;;;20.47;59.98;102034.03;5016318;28;20030;-82
2021/07/08 05:07:16;;;;;;;0.10;0.10;;;;;;;20.54;60.06;102040.91;5016206;28;20022;-81
2021/07/08 05:09:43;;;;;;;0.20;0.20;;;;;;;20.55;60.25;102031.88;5016483;28;20046;-81
2021/07/08 05:12:09;;;;;;;0.15;0.15;;;;;;;20.56;60.36;102039.03;5015873;28;20088;-81
2021/07/08 05:14:36;;;;;;;0.00;0.00;;;;;;;20.58;60.41;102038.94;5015867;28;20030;-82
2021/07/08 05:17:04;;;;;;;0.08;0.08;;;;;;;20.55;60.67;102034.56;5022497;28;20030;-81
2021/07/08 05:19:30;;;;;;;0.25;0.25;;;;;;;20.60;60.23;102035.25;5016357;28;20038;-81
2021/07/08 05:22:00;;;;;;;0.00;0.00;;;;;;;20.61;60.50;102034.31;5030833;28;20057;-81
2021/07/08 05:24:26;;;;;;;0.50;0.50;;;;;;;20.65;60.53;102038.59;5015607;28;20141;-81
2021/07/08 05:26:54;;;;;;;0.30;0.30;;;;;;;20.70;60.09;102033.03;5016661;28;20069;-81
2021/07/08 05:29:22;;;;;;;0.20;0.20;;;;;;;20.76;59.89;102039.97;4998581;28;20040;-82
2021/07/08 05:31:59;;;;;;;0.10;0.10;;;;;;;20.86;59.69;102041.34;5014703;28;20026;-83
2021/07/08 05:34:25;;;;;;;0.10;0.10;;;;;;;20.88;59.93;102049.34;5013527;28;20026;-82
2021/07/08 05:36:51;;;;;;;1.98;1.38;;;;;;;20.90;59.97;102055.53;5013619;28;20435;-83
2021/07/08 05:39:17;;;;;;;0.10;0.10;;;;;;;20.91;59.81;102052.78;5014203;28;20038;-82
2021/07/08 05:41:43;;;;;;;1.55;0.47;;;;;;;20.97;59.85;102059.72;4996667;28;20422;-81
2021/07/08 05:44:11;;;;;;;1.42;1.33;;;;;;;20.99;59.80;102061.38;5013208;28;20034;-81
2021/07/08 05:46:37;;;;;;;0.10;0.10;;;;;;;21.01;58.70;102070.28;5013651;28;20030;-82
2021/07/08 05:49:03;;;;;;;0.10;0.10;;;;;;;21.04;59.25;102074.66;5014922;28;20044;-82
2021/07/08 05:51:31;;;;;;;0.25;0.25;;;;;;;21.10;58.67;102073.53;5014668;28;20025;-81
2021/07/08 05:53:59;;;;;;;0.00;0.00;;;;;;;21.16;59.01;102075.94;5015061;28;20117;-81
2021/07/08 05:56:26;;;;;;;0.10;0.10;;;;;;;21.13;58.41;102076.06;5014135;28;20137;-82
2021/07/08 05:58:53;;;;;;;0.00;0.00;;;;;;;21.24;59.67;102086.38;5014036;28;20120;-83
2021/07/08 06:01:21;;;;;;;0.38;0.38;;;;;;;21.30;59.58;102081.56;5009799;28;20077;-83
2021/07/08 06:03:47;;;;;;;0.20;0.20;;;;;;;21.39;58.97;102082.09;4996183;28;20061;-82
2021/07/08 06:06:15;;;;;;;0.10;0.10;;;;;;;21.34;59.31;102088.56;5006084;28;20026;-82
2021/07/08 06:08:42;;;;;;;0.10;0.10;;;;;;;21.46;58.42;102078.19;5014971;28;20026;-82
2021/07/08 06:11:09;;;;;;;0.10;0.10;;;;;;;21.58;58.61;102076.75;5019570;28;20030;-81
2021/07/08 06:13:36;;;;;;;0.10;0.10;;;;;;;21.69;58.32;102078.94;5010805;28;20536;-81
2021/07/08 06:16:02;;;;;;;0.30;0.30;;;;;;;21.75;57.49;102089.44;5014919;28;20030;-82
2021/07/08 06:18:29;;;;;;;0.68;0.68;;;;;;;21.90;57.53;102102.19;5025775;28;20041;-83
2021/07/08 06:20:55;;;;;;;2.13;1.08;;;;;;;21.99;56.41;102106.28;5031922;28;20088;-83
2021/07/08 06:23:22;;;;;;;0.10;0.10;;;;;;;22.10;55.96;102105.75;5034351;28;20041;-83
2021/07/08 06:25:49;;;;;;;0.00;0.00;;;;;;;22.14;56.00;102108.25;5029054;28;20021;-82
2021/07/08 06:28:17;;;;;;;0.10;0.10;;;;;;;22.25;55.98;102120.34;5022321;28;20041;-82
2021/07/08 06:30:44;;;;;;;0.10;0.10;;;;;;;22.30;55.36;102116.44;5023241;28;20095;-82
2021/07/08 06:33:11;;;;;;;0.55;0.55;;;;;;;22.39;55.16;102125.06;5016175;28;20129;-83
2021/07/08 06:35:37;;;;;;;0.10;0.10;;;;;;;22.44;55.85;102125.72;5016849;28;20025;-83
2021/07/08 06:38:04;;;;;;;0.30;0.30;;;;;;;22.49;54.91;102123.66;5006120;28;20583;-83
2021/07/08 06:40:31;;;;;;;0.00;0.00;;;;;;;22.58;54.65;102133.13;5012123;28;20030;-84
2021/07/08 06:42:58;;;;;;;0.90;0.88;;;;;;;22.60;54.27;102129.41;5015163;28;20473;-82
2021/07/08 06:45:25;;;;;;;0.10;0.10;;;;;;;22.66;54.67;102140.88;5010722;28;20026;-83
2021/07/08 06:47:54;;;;;;;0.03;0.03;;;;;;;22.75;54.24;102135.88;5012400;28;20057;-83
2021/07/08 06:50:20;;;;;;;0.03;0.03;;;;;;;22.74;53.42;102128.72;5000952;28;20042;-83
2021/07/08 06:52:47;;;;;;;0.20;0.20;;;;;;;22.76;53.28;102126.78;5014079;28;20033;-84
2021/07/08 06:55:14;;;;;;;0.10;0.10;;;;;;;22.73;54.46;102132.38;5014059;28;20088;-85
2021/07/08 06:57:50;;;;;;;0.10;0.10;;;;;;;22.57;54.16;102129.56;5014388;28;20033;-85
2021/07/08 07:03:04;;;;;;;0.13;0.13;;;;;;;22.42;54.43;102116.84;5069905;27;21246;-86
2021/07/08 07:05:30;;;;;;;0.05;0.05;;;;;;;21.95;53.10;102124.44;5062786;28;20055;-84
2021/07/08 07:07:57;;;;;;;0.10;0.10;;;;;;;21.93;53.20;102133.56;5062239;28;20041;-84
2021/07/08 07:10:25;;;;;;;0.10;0.10;;;;;;;22.03;52.26;102142.97;5049622;28;20020;-83
2021/07/08 07:12:57;;;;;;;0.43;0.43;;;;;;;22.09;52.22;102136.41;5059262;28;20036;-85
2021/07/08 07:15:26;;;;;;;0.10;0.10;;;;;;;21.89;51.05;102143.59;5058588;28;20021;-83
2021/07/08 07:17:53;;;;;;;0.00;0.00;;;;;;;21.90;51.71;102147.19;5057515;28;20030;-86
2021/07/08 07:20:21;;;;;;;0.20;0.20;;;;;;;22.01;51.68;102143.97;5059196;28;20044;-84
2021/07/08 07:22:48;;;;;;;0.00;0.00;;;;;;;22.04;51.13;102141.16;5058797;28;20499;-84
2021/07/08 07:25:19;;;;;;;0.10;0.10;;;;;;;22.16;50.79;102140.56;5061426;28;20430;-83
2021/07/08 07:27:49;;;;;;;0.00;0.00;;;;;;;22.10;50.99;102132.75;5060062;28;20353;-85
2021/07/08 07:30:15;;;;;;;0.82;0.82;;;;;;;22.00;50.26;102126.91;5062034;28;20087;-83
2021/07/08 07:32:41;;;;;;;0.95;0.95;;;;;;;21.98;49.04;102110.81;5056882;28;20451;-85
2021/07/08 07:35:09;;;;;;;0.10;0.10;;;;;;;21.89;49.70;102115.78;5048295;28;20094;-84
2021/07/08 07:37:35;;;;;;;0.05;0.05;;;;;;;22.03;49.32;102120.50;5051918;28;20021;-83
2021/07/08 07:40:01;;;;;;;0.00;0.00;;;;;;;22.09;48.99;102122.91;5067158;28;20420;-83
2021/07/08 07:42:28;;;;;;;2.45;1.42;;;;;;;22.24;50.09;102122.16;5058369;28;20056;-84
2021/07/08 07:44:54;;;;;;;0.00;0.00;;;;;;;22.26;49.18;102125.66;5061052;28;20047;-85
2021/07/08 07:47:20;;;;;;;0.00;0.00;;;;;;;22.33;48.88;102117.25;5057846;28;20028;-86
2021/07/08 07:49:46;;;;;;;0.10;0.10;;;;;;;22.48;48.94;102121.94;5059370;28;20064;-84
2021/07/08 07:52:13;;;;;;;0.17;0.17;;;;;;;22.35;48.64;102123.47;5058698;28;20045;-85
2021/07/08 07:54:40;;;;;;;0.10;0.10;;;;;;;22.53;48.65;102119.88;5059780;28;20539;-84
2021/07/08 07:57:08;;;;;;;0.00;0.00;;;;;;;22.48;49.30;102127.34;5058483;28;20498;-85
2021/07/08 07:59:35;;;;;;;0.10;0.10;;;;;;;22.50;49.25;102125.41;5059262;28;20013;-85
2021/07/08 08:02:02;;;;;;;0.00;0.00;;;;;;;22.60;47.81;102121.31;5057100;28;20521;-85
2021/07/08 08:04:31;;;;;;;0.10;0.10;;;;;;;22.48;48.91;102131.84;5060799;28;20020;-84
2021/07/08 08:09:44;;;;;;;0.00;0.00;;;;;;;22.69;48.65;102138.00;5059669;28;20041;-85
2021/07/08 08:12:11;;;;;;;0.10;0.10;;;;;;;22.83;48.76;102137.28;5064653;28;20040;-84
2021/07/08 08:14:37;;;;;;;0.00;0.00;;;;;;;22.78;48.01;102134.84;5053002;28;20606;-85
2021/07/08 08:17:04;;;;;;;0.40;0.40;;;;;;;22.90;47.88;102136.03;5038709;28;20025;-84
2021/07/08 08:19:30;;;;;;;0.10;0.10;;;;;;;22.87;46.97;102123.53;5053602;28;20107;-84
2021/07/08 08:21:56;;;;;;;0.03;0.03;;;;;;;22.90;47.13;102128.81;5047911;28;20040;-84
2021/07/08 08:24:22;;;;;;;0.10;0.10;;;;;;;23.18;46.98;102124.69;5043536;28;20051;-85
2021/07/08 08:26:52;;;;;;;0.00;0.00;;;;;;;23.18;46.35;102121.97;5046389;28;20021;-84
2021/07/08 08:29:20;;;;;;;0.40;0.40;;;;;;;23.44;46.94;102127.81;5044647;28;20483;-84
2021/07/08 08:31:47;;;;;;;1.02;0.90;;;;;;;23.59;46.91;102126.97;5043788;28;20064;-85
2021/07/08 08:34:13;;;;;;;0.10;0.10;;;;;;;23.57;46.79;102141.53;5044301;28;20131;-88
2021/07/08 08:36:40;;;;;;;0.10;0.10;;;;;;;23.54;45.29;102130.88;5041697;28;20026;-85
2021/07/08 08:39:06;;;;;;;0.10;0.10;;;;;;;23.69;45.10;102145.38;5035307;28;20030;-86
2021/07/08 08:41:34;;;;;;;0.05;0.05;;;;;;;23.84;45.39;102135.53;5035938;28;20037;-83
2021/07/08 08:44:00;;;;;;;0.10;0.10;;;;;;;23.69;45.46;102146.28;5043943;28;20033;-83
2021/07/08 08:46:27;;;;;;;0.03;0.03;;;;;;;23.93;44.96;102123.41;5046807;28;20114;-84
2021/07/08 08:48:54;;;;;;;0.05;0.05;;;;;;;24.03;45.51;102124.63;5044043;28;20048;-85
2021/07/08 08:51:21;;;;;;;0.03;0.03;;;;;;;24.14;45.07;102119.44;5044006;28;20048;-84
2021/07/08 08:53:47;;;;;;;0.00;0.00;;;;;;;24.19;44.89;102114.66;5050005;28;20029;-84
2021/07/08 08:56:13;;;;;;;6.30;1.48;;;;;;;24.27;44.89;102116.03;5045024;28;20033;-85
2021/07/08 08:58:40;;;;;;;0.05;0.05;;;;;;;24.21;43.99;102115.44;5045241;28;20023;-86
2021/07/08 09:01:07;;;;;;;0.10;0.10;;;;;;;24.04;43.79;102115.53;5044649;28;20041;-85
2021/07/08 09:03:37;;;;;;;0.22;0.22;;;;;;;24.30;44.29;102110.44;5044016;28;20169;-87
2021/07/08 09:06:07;;;;;;;0.00;0.00;;;;;;;24.27;44.17;102116.03;5045831;28;20460;-84
2021/07/08 09:08:35;;;;;;;0.45;0.45;;;;;;;24.36;44.08;102127.22;5046259;28;20496;-87
2021/07/08 09:21:50;;;;;;;0.15;0.15;;;;;;;24.72;43.18;102133.28;5081648;27;20427;-86
2021/07/08 09:29:49;;;;;;;0.10;0.10;;;;;;;24.87;43.16;102116.13;5069792;28;20991;-84
2021/07/08 09:32:18;;;;;;;0.10;0.10;;;;;;;25.09;43.14;102111.22;5069816;28;20427;-85
2021/07/08 09:34:49;;;;;;;4.13;1.30;;;;;;;24.98;43.11;102117.28;5068081;28;20031;-85
2021/07/08 09:37:20;;;;;;;0.10;0.10;;;;;;;25.25;42.43;102105.72;5069544;28;20060;-85
2021/07/08 09:40:05;;;;;;;0.00;0.00;;;;;;;25.42;41.96;102107.38;5070436;28;20036;-86
2021/07/08 09:45:18;;;;;;;0.10;0.10;;;;;;;25.81;41.67;102117.53;5068757;28;20411;-84
2021/07/08 09:47:46;;;;;;;0.32;0.32;;;;;;;25.77;40.82;102116.00;5069945;28;20025;-86
2021/07/08 09:50:14;;;;;;;0.00;0.00;;;;;;;26.16;41.20;102127.97;5069435;28;21375;-85
2021/07/08 09:52:59;;;;;;;0.10;0.10;;;;;;;26.36;40.97;102133.06;5063748;28;20147;-85
2021/07/08 09:55:31;;;;;;;0.10;0.10;;;;;;;26.40;42.61;102140.88;5048002;28;20388;-85
2021/07/08 09:58:05;;;;;;;0.10;0.10;;;;;;;26.37;39.76;102141.09;5049300;28;20036;-84
2021/07/08 10:00:33;;;;;;;0.00;0.00;;;;;;;26.44;40.11;102141.56;5050497;28;20042;-84
2021/07/08 10:03:01;;;;;;;0.10;0.10;;;;;;;26.56;40.67;102137.16;5049471;28;20029;-85
2021/07/08 10:05:27;;;;;;;0.10;0.10;;;;;;;26.69;41.75;102146.19;5050009;28;20048;-85
2021/07/08 10:07:55;;;;;;;0.00;0.00;;;;;;;26.79;40.30;102155.53;5048493;28;20029;-85
2021/07/08 10:10:22;;;;;;;0.15;0.15;;;;;;;26.85;40.16;102156.06;5049546;28;20037;-85
2021/07/08 10:12:49;;;;;;;0.03;0.03;;;;;;;27.08;39.97;102152.63;5049952;28;20037;-86
2021/07/08 10:15:16;;;;;;;0.08;0.08;;;;;;;27.28;39.17;102159.38;5048862;28;20080;-83
2021/07/08 10:17:44;;;;;;;0.10;0.10;;;;;;;27.33;39.29;102166.34;5048877;28;20025;-83
2021/07/08 10:20:14;;;;;;;0.17;0.17;;;;;;;27.18;38.08;102165.56;5049138;28;20052;-83
2021/07/08 10:22:41;;;;;;;0.10;0.10;;;;;;;27.26;38.43;102172.22;5046610;28;20110;-83
2021/07/08 10:25:10;;;;;;;0.30;0.20;;;;;;;27.35;40.87;102172.56;5049236;28;20079;-84
2021/07/08 10:27:42;;;;;;;0.05;0.05;;;;;;;27.51;38.66;102175.09;5045836;28;20025;-84
2021/07/08 10:30:10;;;;;;;0.13;0.13;;;;;;;27.33;38.95;102172.69;5048816;28;20056;-83
2021/07/08 10:32:37;;;;;;;0.00;0.00;;;;;;;27.46;39.23;102160.97;5046479;28;20030;-84
2021/07/08 10:35:04;;;;;;;0.20;0.20;;;;;;;27.50;38.62;102165.19;5048233;28;20187;-83
2021/07/08 10:37:33;;;;;;;0.10;0.10;;;;;;;27.68;38.59;102158.44;5048738;28;20222;-82
2021/07/08 10:40:00;;;;;;;0.00;0.00;;;;;;;27.56;38.80;102168.34;5048830;28;20040;-83
2021/07/08 10:42:49;;;;;;;0.00;0.00;;;;;;;27.47;39.20;102173.59;5047869;28;20032;-83
2021/07/08 10:48:12;;;;;;;0.10;0.10;;;;;;;27.22;38.87;102175.28;5130553;27;20411;-82
2021/07/08 10:50:49;;;;;;;0.10;0.10;;;;;;;26.78;39.08;102167.38;5110056;28;20032;-84
2021/07/08 10:56:09;;;;;;;0.10;0.10;;;;;;;26.78;39.40;102153.78;5082736;28;20475;-84
2021/07/08 11:04:05;;;;;;;0.30;0.30;;;;;;;27.00;40.46;102141.41;5062032;27;20420;-83
2021/07/08 11:06:43;;;;;;;0.00;0.00;;;;;;;27.09;38.39;102138.06;5049655;28;20040;-84
2021/07/08 11:14:34;;;;;;;0.10;0.10;;;;;;;27.86;37.69;102137.16;5061267;27;20436;-84
2021/07/08 11:19:44;;;;;;;0.10;0.10;;;;;;;28.03;38.51;102138.63;5051111;27;20477;-84
2021/07/08 11:22:28;;;;;;;0.17;0.17;;;;;;;28.01;37.98;102140.59;5036810;28;20105;-84
2021/07/08 11:24:55;;;;;;;2.75;1.17;;;;;;;28.18;38.40;102127.63;5027044;28;20483;-83
2021/07/08 11:30:26;;;;;;;0.10;0.10;;;;;;;28.32;37.07;102129.31;5085352;28;20421;-83
2021/07/08 11:32:58;;;;;;;0.20;0.20;;;;;;;28.32;37.68;102124.72;5065202;28;20045;-82
2021/07/08 11:35:39;;;;;;;0.10;0.10;;;;;;;28.44;38.04;102119.31;5059286;28;20029;-83
2021/07/08 11:38:15;;;;;;;0.00;0.00;;;;;;;28.53;37.81;102111.31;5049904;28;20047;-81
2021/07/08 11:40:46;;;;;;;0.25;0.25;;;;;;;28.48;37.24;102115.38;5048478;28;20063;-82
2021/07/08 11:46:07;;;;;;;0.20;0.20;;;;;;;28.22;36.88;102115.50;5053508;27;2630797;-83
2021/07/08 11:48:38;;;;;;;0.20;0.20;;;;;;;27.96;37.59;102120.13;5126783;27;20024;-82
2021/07/08 11:51:28;;;;;;;0.35;0.35;;;;;;;27.92;36.53;102117.63;5127786;28;20028;-82
2021/07/08 11:53:55;;;;;;;0.03;0.03;;;;;;;27.87;36.75;102127.13;5105660;27;20032;-82
2021/07/08 11:56:24;;;;;;;0.00;0.00;;;;;;;27.86;38.24;102128.13;5098152;28;20028;-82
2021/07/08 11:58:51;;;;;;;0.10;0.10;;;;;;;27.66;37.90;102135.03;5107110;28;20020;-83
2021/07/08 12:01:19;;;;;;;0.10;0.10;;;;;;;27.19;39.29;102141.00;5109465;28;20547;-83
2021/07/08 12:03:49;;;;;;;0.10;0.10;;;;;;;27.34;38.46;102140.88;5107443;28;20032;-88
2021/07/08 12:06:20;;;;;;;0.10;0.10;;;;;;;27.28;39.12;102142.22;5109103;28;20032;-85
2021/07/08 12:08:54;;;;;;;0.40;0.40;;;;;;;27.20;38.42;102150.88;5107406;28;20512;-83
2021/07/08 12:16:53;;;;;;;0.15;0.15;;;;;;;27.56;37.90;102138.41;5090344;27;20418;-84
2021/07/08 12:19:24;;;;;;;0.10;0.10;;;;;;;27.76;37.31;102144.25;5070238;28;20037;-84
2021/07/08 12:21:52;;;;;;;0.63;0.63;;;;;;;28.12;37.53;102136.25;5070363;28;20108;-85
2021/07/08 12:27:08;;;;;;;0.10;0.10;;;;;;;28.23;36.61;102134.44;5090039;28;20406;-84